Iberica Hav — C6YI3 — position and weather

sailwx.info

Track history (hours):
 
Tides and Currents Weather Stations Pressure Air Temp Water Temp Dewpoint Dewpoint Depression Visibility Wind Speed Wind Dir Waves Ship Positions

Iberica Hav

Last reported at 2017-Feb-26 16:31 UTC. Time now 2017-Feb-26 19:16 UTC.
Position N 53°42' W 000°26'.

Length 88 m; draft 3.8 m.

Type: Cargo ship. MMSI: 311034400.

Date/timePositionNaut miles runAvg speedWind from/ knotsBaromVisibWave heightAir tempDewpointWater temp
2017-Feb-26 16:31N 53°42' W 000°26'8 8.7
2017-Feb-26 15:33N 53°40' W 000°12'316 6.6
2017-Feb-24 15:22N 53°54' E 008°42'911.1
2017-Feb-24 14:33N 53°51' E 008°56'8 7.8
2017-Feb-24 13:33N 53°54' E 009°09'2 1.6
2017-Feb-24 12:33N 53°55' E 009°11'9 8.6
2017-Feb-24 11:33N 54°02' E 009°18'57 6.3
2017-Feb-24 02:33N 54°33' E 010°40'7 7.4
2017-Feb-24 01:34N 54°33' E 010°52'7 7.1
2017-Feb-24 00:34N 54°33' E 011°05'7 7.3
2017-Feb-23 23:34N 54°34' E 011°17'7 7.2
2017-Feb-23 22:33N 54°32' E 011°29'8 7.7
2017-Feb-23 21:34N 54°31' E 011°42'8 8.0
2017-Feb-23 20:33N 54°31' E 011°56'8 8.0
2017-Feb-23 19:34N 54°32' E 012°10'9 8.6
2017-Feb-23 18:34N 54°33' E 012°24'84 6.7
2017-Feb-23 06:05N 53°47' E 014°23'5 9.0
2017-Feb-23 05:33N 53°43' E 014°28'9 9.0
2017-Feb-23 04:34N 53°35' E 014°36'8 8.2
2017-Feb-23 03:33N 53°27' E 014°36'3 2.6
2017-Feb-23 02:31N 53°24' E 014°37'0 0.0
2017-Feb-23 00:31N 53°24' E 014°37'0 0.0
2017-Feb-22 23:32N 53°24' E 014°37'0 0.0
2017-Feb-22 22:31N 53°24' E 014°37'0 0.0
2017-Feb-22 20:13N 53°24' E 014°37'0 0.0
2017-Feb-22 18:25N 53°24' E 014°37'0 0.0
2017-Feb-22 16:31N 53°24' E 014°37'0 0.0
2017-Feb-22 15:31N 53°24' E 014°37'0 0.0
2017-Feb-22 14:31N 53°24' E 014°37'0 0.0
2017-Feb-22 13:31N 53°24' E 014°37'0 0.0
2017-Feb-22 04:25N 53°24' E 014°37'0 0.0
2017-Feb-22 03:19N 53°24' E 014°37'0 0.0
2017-Feb-22 02:22N 53°24' E 014°37'0 0.0
2017-Feb-22 00:28N 53°24' E 014°37'0 0.0
2017-Feb-21 23:28N 53°24' E 014°37'0 0.0
2017-Feb-21 19:04N 53°24' E 014°37'0 0.0
2017-Feb-21 18:31N 53°24' E 014°37'0 0.1
2017-Feb-21 17:31N 53°24' E 014°37'0 0.0
2017-Feb-21 16:28N 53°24' E 014°37'0 0.0
2017-Feb-21 15:31N 53°24' E 014°37'0 0.0
2017-Feb-21 14:31N 53°24' E 014°37'0 0.0
2017-Feb-21 13:31N 53°24' E 014°37'0 0.0
2017-Feb-21 12:31N 53°24' E 014°37'0 0.0
2017-Feb-21 11:31N 53°24' E 014°37'0 0.0
2017-Feb-21 10:31N 53°24' E 014°37'0 0.0
2017-Feb-21 09:31N 53°24' E 014°37'0 0.0
2017-Feb-21 08:28N 53°24' E 014°37'0 0.5
2017-Feb-21 07:31N 53°25' E 014°37'0 0.0
2017-Feb-21 06:31N 53°25' E 014°37'0 0.0
2017-Feb-21 05:28N 53°25' E 014°37'0 0.0
2017-Feb-21 04:31N 53°25' E 014°37'0 0.0
2017-Feb-21 03:10N 53°25' E 014°37'0 0.0
2017-Feb-21 02:10N 53°25' E 014°37'0 0.0
2017-Feb-21 01:28N 53°25' E 014°37'0 0.0
2017-Feb-21 00:31N 53°25' E 014°37'0 0.0
2017-Feb-20 21:31N 53°25' E 014°37'0 0.0
2017-Feb-20 20:28N 53°25' E 014°37'0 0.0
2017-Feb-20 19:28N 53°25' E 014°37'0 0.0
2017-Feb-20 18:31N 53°25' E 014°37'0 0.0
2017-Feb-20 17:31N 53°25' E 014°37'0 0.0
2017-Feb-20 16:28N 53°25' E 014°37'0 0.0
2017-Feb-20 15:28N 53°25' E 014°37'0 0.0
2017-Feb-20 14:31N 53°25' E 014°37'0 0.0
2017-Feb-20 13:31N 53°25' E 014°37'0 0.0
2017-Feb-20 12:31N 53°25' E 014°37'0 0.0
2017-Feb-20 11:28N 53°25' E 014°37'0 0.0
2017-Feb-20 10:31N 53°25' E 014°37'0 0.0
2017-Feb-20 09:31N 53°25' E 014°37'0 0.0
2017-Feb-20 08:31N 53°25' E 014°37'0 0.0
2017-Feb-20 07:31N 53°25' E 014°37'0 0.0
2017-Feb-20 06:31N 53°25' E 014°37'0 0.0
2017-Feb-20 05:31N 53°25' E 014°37'0 0.0
2017-Feb-20 04:28N 53°25' E 014°37'0 0.0
2017-Feb-20 03:31N 53°25' E 014°37'0 0.0
2017-Feb-20 02:31N 53°25' E 014°37'0 0.0
2017-Feb-20 01:31N 53°25' E 014°37'0 0.0
2017-Feb-20 00:31N 53°25' E 014°37'0 0.0
2017-Feb-19 23:31N 53°25' E 014°37'0 0.0
2017-Feb-19 22:31N 53°25' E 014°37'0 0.0
2017-Feb-19 21:31N 53°25' E 014°37'0 0.0
2017-Feb-19 20:31N 53°25' E 014°37'0 0.0
2017-Feb-19 19:31N 53°25' E 014°37'0 0.0
2017-Feb-19 18:28N 53°25' E 014°37'0 0.0
2017-Feb-19 17:31N 53°25' E 014°37'0 0.0
2017-Feb-19 16:31N 53°25' E 014°37'0 0.0
2017-Feb-19 15:31N 53°25' E 014°37'0 0.0
2017-Feb-19 14:25N 53°25' E 014°37'0 0.0
2017-Feb-19 13:19N 53°25' E 014°37'0 0.0
2017-Feb-19 12:31N 53°25' E 014°37'0 0.0
2017-Feb-19 11:31N 53°25' E 014°37'0 0.0
2017-Feb-19 10:31N 53°25' E 014°37'0 0.0
2017-Feb-19 09:22N 53°25' E 014°37'0 0.0
2017-Feb-19 08:31N 53°25' E 014°37'0 0.0
2017-Feb-19 07:31N 53°25' E 014°37'0 0.0
2017-Feb-19 06:31N 53°25' E 014°37'0 0.0
2017-Feb-19 05:31N 53°25' E 014°37'0 0.0
2017-Feb-19 04:31N 53°25' E 014°37'0 0.0
2017-Feb-19 03:31N 53°25' E 014°37'0 0.0
2017-Feb-19 02:31N 53°25' E 014°37'0 0.0
2017-Feb-19 01:31N 53°25' E 014°37'0 0.0
2017-Feb-19 00:31N 53°25' E 014°37'0 0.0
2017-Feb-18 23:31N 53°25' E 014°37'0 0.0
2017-Feb-18 22:31N 53°25' E 014°37'0 0.0
2017-Feb-18 21:31N 53°25' E 014°37'5 5.1
2017-Feb-18 20:33N 53°29' E 014°37'8 8.2
2017-Feb-18 19:33N 53°38' E 014°35'9 9.0
2017-Feb-18 18:33N 53°45' E 014°25'74 8.2
2017-Feb-18 09:32N 54°38' E 012°57'1010.1
2017-Feb-18 08:34N 54°35' E 012°41'1010.5
2017-Feb-18 07:33N 54°32' E 012°24'10 9.9
2017-Feb-18 06:33N 54°26' E 012°11'10 9.9
2017-Feb-18 05:34N 54°25' E 011°54'14 9.9
2017-Feb-18 04:08N 54°29' E 011°30'610.6
2017-Feb-18 03:34N 54°31' E 011°21'1110.6
2017-Feb-18 02:34N 54°33' E 011°03'1010.0
2017-Feb-18 01:33N 54°33' E 010°45'60 6.6
2017-Feb-17 16:28N 54°01' E 009°18'8 8.5
2017-Feb-17 15:33N 53°55' E 009°11'3 2.9
2017-Feb-17 14:33N 53°53' E 009°07'5 4.5
2017-Feb-17 13:33N 53°51' E 008°60'9 9.3
2017-Feb-17 12:33N 53°52' E 008°44'9 8.9
2017-Feb-17 11:33N 53°58' E 008°33'9 8.9
2017-Feb-17 10:33N 53°59' E 008°18'10 9.9
2017-Feb-17 09:33N 53°58' E 008°02'143 8.8
2017-Feb-16 17:24N 53°00' E 004°22'  
Track history (hours):
 
Tides and Currents Weather Stations Pressure Air Temp Water Temp Dewpoint Dewpoint Depression Visibility Wind Speed Wind Dir Waves Ship Positions

Iberica Hav

Last reported at 2017-Feb-26 16:31 UTC. Time now 2017-Feb-26 19:16 UTC.
Position N 53°42' W 000°26'.

Length 88 m; draft 3.8 m.

Type: Cargo ship. MMSI: 311034400.

Date/timePositionNaut miles runAvg speedWind from/ knotsBaromVisibWave heightAir tempDewpointWater temp
2017-Feb-26 16:31N 53°42' W 000°26'8 8.7
2017-Feb-26 15:33N 53°40' W 000°12'316 6.6
2017-Feb-24 15:22N 53°54' E 008°42'911.1
2017-Feb-24 14:33N 53°51' E 008°56'8 7.8
2017-Feb-24 13:33N 53°54' E 009°09'2 1.6
2017-Feb-24 12:33N 53°55' E 009°11'9 8.6
2017-Feb-24 11:33N 54°02' E 009°18'57 6.3
2017-Feb-24 02:33N 54°33' E 010°40'7 7.4
2017-Feb-24 01:34N 54°33' E 010°52'7 7.1
2017-Feb-24 00:34N 54°33' E 011°05'7 7.3
2017-Feb-23 23:34N 54°34' E 011°17'7 7.2
2017-Feb-23 22:33N 54°32' E 011°29'8 7.7
2017-Feb-23 21:34N 54°31' E 011°42'8 8.0
2017-Feb-23 20:33N 54°31' E 011°56'8 8.0
2017-Feb-23 19:34N 54°32' E 012°10'9 8.6
2017-Feb-23 18:34N 54°33' E 012°24'84 6.7
2017-Feb-23 06:05N 53°47' E 014°23'5 9.0
2017-Feb-23 05:33N 53°43' E 014°28'9 9.0
2017-Feb-23 04:34N 53°35' E 014°36'8 8.2
2017-Feb-23 03:33N 53°27' E 014°36'3 2.6
2017-Feb-23 02:31N 53°24' E 014°37'0 0.0
2017-Feb-23 00:31N 53°24' E 014°37'0 0.0
2017-Feb-22 23:32N 53°24' E 014°37'0 0.0
2017-Feb-22 22:31N 53°24' E 014°37'0 0.0
2017-Feb-22 20:13N 53°24' E 014°37'0 0.0
2017-Feb-22 18:25N 53°24' E 014°37'0 0.0
2017-Feb-22 16:31N 53°24' E 014°37'0 0.0
2017-Feb-22 15:31N 53°24' E 014°37'0 0.0
2017-Feb-22 14:31N 53°24' E 014°37'0 0.0
2017-Feb-22 13:31N 53°24' E 014°37'0 0.0
2017-Feb-22 04:25N 53°24' E 014°37'0 0.0
2017-Feb-22 03:19N 53°24' E 014°37'0 0.0
2017-Feb-22 02:22N 53°24' E 014°37'0 0.0
2017-Feb-22 00:28N 53°24' E 014°37'0 0.0
2017-Feb-21 23:28N 53°24' E 014°37'0 0.0
2017-Feb-21 19:04N 53°24' E 014°37'0 0.0
2017-Feb-21 18:31N 53°24' E 014°37'0 0.1
2017-Feb-21 17:31N 53°24' E 014°37'0 0.0
2017-Feb-21 16:28N 53°24' E 014°37'0 0.0
2017-Feb-21 15:31N 53°24' E 014°37'0 0.0
2017-Feb-21 14:31N 53°24' E 014°37'0 0.0
2017-Feb-21 13:31N 53°24' E 014°37'0 0.0
2017-Feb-21 12:31N 53°24' E 014°37'0 0.0
2017-Feb-21 11:31N 53°24' E 014°37'0 0.0
2017-Feb-21 10:31N 53°24' E 014°37'0 0.0
2017-Feb-21 09:31N 53°24' E 014°37'0 0.0
2017-Feb-21 08:28N 53°24' E 014°37'0 0.5
2017-Feb-21 07:31N 53°25' E 014°37'0 0.0
2017-Feb-21 06:31N 53°25' E 014°37'0 0.0
2017-Feb-21 05:28N 53°25' E 014°37'0 0.0
2017-Feb-21 04:31N 53°25' E 014°37'0 0.0
2017-Feb-21 03:10N 53°25' E 014°37'0 0.0
2017-Feb-21 02:10N 53°25' E 014°37'0 0.0
2017-Feb-21 01:28N 53°25' E 014°37'0 0.0
2017-Feb-21 00:31N 53°25' E 014°37'0 0.0
2017-Feb-20 21:31N 53°25' E 014°37'0 0.0
2017-Feb-20 20:28N 53°25' E 014°37'0 0.0
2017-Feb-20 19:28N 53°25' E 014°37'0 0.0
2017-Feb-20 18:31N 53°25' E 014°37'0 0.0
2017-Feb-20 17:31N 53°25' E 014°37'0 0.0
2017-Feb-20 16:28N 53°25' E 014°37'0 0.0
2017-Feb-20 15:28N 53°25' E 014°37'0 0.0
2017-Feb-20 14:31N 53°25' E 014°37'0 0.0
2017-Feb-20 13:31N 53°25' E 014°37'0 0.0
2017-Feb-20 12:31N 53°25' E 014°37'0 0.0
2017-Feb-20 11:28N 53°25' E 014°37'0 0.0
2017-Feb-20 10:31N 53°25' E 014°37'0 0.0
2017-Feb-20 09:31N 53°25' E 014°37'0 0.0
2017-Feb-20 08:31N 53°25' E 014°37'0 0.0
2017-Feb-20 07:31N 53°25' E 014°37'0 0.0
2017-Feb-20 06:31N 53°25' E 014°37'0 0.0
2017-Feb-20 05:31N 53°25' E 014°37'0 0.0
2017-Feb-20 04:28N 53°25' E 014°37'0 0.0
2017-Feb-20 03:31N 53°25' E 014°37'0 0.0
2017-Feb-20 02:31N 53°25' E 014°37'0 0.0
2017-Feb-20 01:31N 53°25' E 014°37'0 0.0
2017-Feb-20 00:31N 53°25' E 014°37'0 0.0
2017-Feb-19 23:31N 53°25' E 014°37'0 0.0
2017-Feb-19 22:31N 53°25' E 014°37'0 0.0
2017-Feb-19 21:31N 53°25' E 014°37'0 0.0
2017-Feb-19 20:31N 53°25' E 014°37'0 0.0
2017-Feb-19 19:31N 53°25' E 014°37'0 0.0
2017-Feb-19 18:28N 53°25' E 014°37'0 0.0
2017-Feb-19 17:31N 53°25' E 014°37'0 0.0
2017-Feb-19 16:31N 53°25' E 014°37'0 0.0
2017-Feb-19 15:31N 53°25' E 014°37'0 0.0
2017-Feb-19 14:25N 53°25' E 014°37'0 0.0
2017-Feb-19 13:19N 53°25' E 014°37'0 0.0
2017-Feb-19 12:31N 53°25' E 014°37'0 0.0
2017-Feb-19 11:31N 53°25' E 014°37'0 0.0
2017-Feb-19 10:31N 53°25' E 014°37'0 0.0
2017-Feb-19 09:22N 53°25' E 014°37'0 0.0
2017-Feb-19 08:31N 53°25' E 014°37'0 0.0
2017-Feb-19 07:31N 53°25' E 014°37'0 0.0
2017-Feb-19 06:31N 53°25' E 014°37'0 0.0
2017-Feb-19 05:31N 53°25' E 014°37'0 0.0
2017-Feb-19 04:31N 53°25' E 014°37'0 0.0
2017-Feb-19 03:31N 53°25' E 014°37'0 0.0
2017-Feb-19 02:31N 53°25' E 014°37'0 0.0
2017-Feb-19 01:31N 53°25' E 014°37'0 0.0
2017-Feb-19 00:31N 53°25' E 014°37'0 0.0
2017-Feb-18 23:31N 53°25' E 014°37'0 0.0
2017-Feb-18 22:31N 53°25' E 014°37'0 0.0
2017-Feb-18 21:31N 53°25' E 014°37'5 5.1
2017-Feb-18 20:33N 53°29' E 014°37'8 8.2
2017-Feb-18 19:33N 53°38' E 014°35'9 9.0
2017-Feb-18 18:33N 53°45' E 014°25'74 8.2
2017-Feb-18 09:32N 54°38' E 012°57'1010.1
2017-Feb-18 08:34N 54°35' E 012°41'1010.5
2017-Feb-18 07:33N 54°32' E 012°24'10 9.9
2017-Feb-18 06:33N 54°26' E 012°11'10 9.9
2017-Feb-18 05:34N 54°25' E 011°54'14 9.9
2017-Feb-18 04:08N 54°29' E 011°30'610.6
2017-Feb-18 03:34N 54°31' E 011°21'1110.6
2017-Feb-18 02:34N 54°33' E 011°03'1010.0
2017-Feb-18 01:33N 54°33' E 010°45'60 6.6
2017-Feb-17 16:28N 54°01' E 009°18'8 8.5
2017-Feb-17 15:33N 53°55' E 009°11'3 2.9
2017-Feb-17 14:33N 53°53' E 009°07'5 4.5
2017-Feb-17 13:33N 53°51' E 008°60'9 9.3
2017-Feb-17 12:33N 53°52' E 008°44'9 8.9
2017-Feb-17 11:33N 53°58' E 008°33'9 8.9
2017-Feb-17 10:33N 53°59' E 008°18'10 9.9
2017-Feb-17 09:33N 53°58' E 008°02'143 8.8
2017-Feb-16 17:24N 53°00' E 004°22'  

Dump ship's entire track history